sensor_id;sensor_type;location;lat;lon;timestamp;P1;durP1;ratioP1;P2;durP2;ratioP2
37303;SDS011;23188;51.188;16.374;2022-08-18T00:02:38;18.80;;;14.75;;
37303;SDS011;23188;51.188;16.374;2022-08-18T00:06:41;19.80;;;15.30;;
37303;SDS011;23188;51.188;16.374;2022-08-18T00:10:42;21.80;;;18.80;;
37303;SDS011;23188;51.188;16.374;2022-08-18T00:14:45;21.12;;;17.05;;
37303;SDS011;23188;51.188;16.374;2022-08-18T00:18:47;20.12;;;16.50;;
37303;SDS011;23188;51.188;16.374;2022-08-18T00:22:49;30.12;;;20.92;;
37303;SDS011;23188;51.188;16.374;2022-08-18T00:26:51;24.82;;;15.80;;
37303;SDS011;23188;51.188;16.374;2022-08-18T00:30:54;27.65;;;18.05;;
37303;SDS011;23188;51.188;16.374;2022-08-18T00:34:55;27.10;;;20.52;;
37303;SDS011;23188;51.188;16.374;2022-08-18T00:38:57;22.07;;;17.92;;
37303;SDS011;23188;51.188;16.374;2022-08-18T00:42:59;26.62;;;17.35;;
37303;SDS011;23188;51.188;16.374;2022-08-18T00:47:04;19.87;;;15.93;;
37303;SDS011;23188;51.188;16.374;2022-08-18T00:51:07;21.93;;;18.23;;
37303;SDS011;23188;51.188;16.374;2022-08-18T00:55:18;19.50;;;16.85;;
37303;SDS011;23188;51.188;16.374;2022-08-18T00:59:30;22.32;;;15.63;;
37303;SDS011;23188;51.188;16.374;2022-08-18T01:03:47;29.25;;;21.45;;
37303;SDS011;23188;51.188;16.374;2022-08-18T01:07:53;28.60;;;21.57;;
37303;SDS011;23188;51.188;16.374;2022-08-18T01:11:55;24.50;;;21.00;;
37303;SDS011;23188;51.188;16.374;2022-08-18T01:15:57;28.95;;;22.02;;
37303;SDS011;23188;51.188;16.374;2022-08-18T01:20:01;24.02;;;20.90;;
37303;SDS011;23188;51.188;16.374;2022-08-18T01:24:23;25.08;;;20.37;;
37303;SDS011;23188;51.188;16.374;2022-08-18T01:28:48;22.00;;;19.62;;
37303;SDS011;23188;51.188;16.374;2022-08-18T01:32:50;25.02;;;19.90;;
37303;SDS011;23188;51.188;16.374;2022-08-18T01:36:54;29.20;;;20.70;;
37303;SDS011;23188;51.188;16.374;2022-08-18T01:40:55;20.25;;;16.97;;
37303;SDS011;23188;51.188;16.374;2022-08-18T01:44:57;22.15;;;15.13;;
37303;SDS011;23188;51.188;16.374;2022-08-18T01:48:59;18.00;;;14.23;;
37303;SDS011;23188;51.188;16.374;2022-08-18T01:53:03;23.67;;;17.87;;
37303;SDS011;23188;51.188;16.374;2022-08-18T01:57:05;16.30;;;13.93;;
37303;SDS011;23188;51.188;16.374;2022-08-18T02:01:06;17.27;;;13.30;;
37303;SDS011;23188;51.188;16.374;2022-08-18T02:05:13;20.32;;;11.78;;
37303;SDS011;23188;51.188;16.374;2022-08-18T02:09:14;14.98;;;13.03;;
37303;SDS011;23188;51.188;16.374;2022-08-18T02:13:16;18.77;;;14.90;;
37303;SDS011;23188;51.188;16.374;2022-08-18T02:17:17;15.70;;;13.85;;
37303;SDS011;23188;51.188;16.374;2022-08-18T02:21:19;21.73;;;14.38;;
37303;SDS011;23188;51.188;16.374;2022-08-18T02:25:21;16.77;;;14.93;;
37303;SDS011;23188;51.188;16.374;2022-08-18T02:29:22;17.80;;;15.20;;
37303;SDS011;23188;51.188;16.374;2022-08-18T02:33:24;19.62;;;15.75;;
37303;SDS011;23188;51.188;16.374;2022-08-18T02:37:25;20.90;;;14.38;;
37303;SDS011;23188;51.188;16.374;2022-08-18T02:41:26;18.70;;;15.05;;
37303;SDS011;23188;51.188;16.374;2022-08-18T02:45:28;26.42;;;17.45;;
37303;SDS011;23188;51.188;16.374;2022-08-18T02:49:29;21.30;;;16.27;;
37303;SDS011;23188;51.188;16.374;2022-08-18T02:53:31;20.80;;;16.60;;
37303;SDS011;23188;51.188;16.374;2022-08-18T02:57:33;24.02;;;17.55;;
37303;SDS011;23188;51.188;16.374;2022-08-18T03:01:40;19.73;;;15.95;;
37303;SDS011;23188;51.188;16.374;2022-08-18T03:05:41;15.32;;;13.70;;
37303;SDS011;23188;51.188;16.374;2022-08-18T03:09:42;24.65;;;20.70;;
37303;SDS011;23188;51.188;16.374;2022-08-18T03:13:44;30.32;;;21.30;;
37303;SDS011;23188;51.188;16.374;2022-08-18T03:17:45;24.35;;;17.82;;
37303;SDS011;23188;51.188;16.374;2022-08-18T03:21:47;25.02;;;19.82;;
37303;SDS011;23188;51.188;16.374;2022-08-18T03:25:48;22.93;;;18.75;;
37303;SDS011;23188;51.188;16.374;2022-08-18T03:29:50;29.65;;;21.57;;
37303;SDS011;23188;51.188;16.374;2022-08-18T03:33:53;27.20;;;20.85;;
37303;SDS011;23188;51.188;16.374;2022-08-18T03:37:59;27.75;;;21.62;;
37303;SDS011;23188;51.188;16.374;2022-08-18T03:42:00;25.70;;;19.02;;
37303;SDS011;23188;51.188;16.374;2022-08-18T03:46:07;25.90;;;21.57;;
37303;SDS011;23188;51.188;16.374;2022-08-18T03:50:10;22.02;;;19.65;;
37303;SDS011;23188;51.188;16.374;2022-08-18T03:54:13;20.70;;;17.37;;
37303;SDS011;23188;51.188;16.374;2022-08-18T03:58:16;26.35;;;19.70;;
37303;SDS011;23188;51.188;16.374;2022-08-18T04:02:18;30.15;;;25.05;;
37303;SDS011;23188;51.188;16.374;2022-08-18T04:06:20;22.65;;;19.32;;
37303;SDS011;23188;51.188;16.374;2022-08-18T04:10:26;22.52;;;17.95;;
37303;SDS011;23188;51.188;16.374;2022-08-18T04:14:27;28.12;;;19.37;;
37303;SDS011;23188;51.188;16.374;2022-08-18T04:18:30;35.78;;;22.70;;
37303;SDS011;23188;51.188;16.374;2022-08-18T04:22:32;49.27;;;24.10;;
37303;SDS011;23188;51.188;16.374;2022-08-18T04:26:40;42.93;;;26.35;;
37303;SDS011;23188;51.188;16.374;2022-08-18T04:30:39;26.75;;;20.30;;
37303;SDS011;23188;51.188;16.374;2022-08-18T04:34:40;20.72;;;17.35;;
37303;SDS011;23188;51.188;16.374;2022-08-18T04:38:42;24.57;;;19.50;;
37303;SDS011;23188;51.188;16.374;2022-08-18T04:42:44;23.30;;;20.05;;
37303;SDS011;23188;51.188;16.374;2022-08-18T04:46:50;29.57;;;22.60;;
37303;SDS011;23188;51.188;16.374;2022-08-18T04:50:51;25.40;;;20.12;;
37303;SDS011;23188;51.188;16.374;2022-08-18T04:54:52;36.60;;;20.95;;
37303;SDS011;23188;51.188;16.374;2022-08-18T05:03:04;24.85;;;20.02;;
37303;SDS011;23188;51.188;16.374;2022-08-18T05:07:06;22.22;;;18.55;;
37303;SDS011;23188;51.188;16.374;2022-08-18T05:11:10;24.52;;;20.10;;
37303;SDS011;23188;51.188;16.374;2022-08-18T05:15:11;27.52;;;19.32;;
37303;SDS011;23188;51.188;16.374;2022-08-18T05:19:12;30.32;;;21.55;;
37303;SDS011;23188;51.188;16.374;2022-08-18T05:23:14;24.75;;;19.98;;
37303;SDS011;23188;51.188;16.374;2022-08-18T05:27:16;25.70;;;21.50;;
37303;SDS011;23188;51.188;16.374;2022-08-18T05:31:18;18.60;;;16.60;;
37303;SDS011;23188;51.188;16.374;2022-08-18T05:35:24;43.80;;;17.43;;
37303;SDS011;23188;51.188;16.374;2022-08-18T05:39:31;20.82;;;18.50;;
37303;SDS011;23188;51.188;16.374;2022-08-18T05:43:43;18.87;;;16.82;;
37303;SDS011;23188;51.188;16.374;2022-08-18T05:47:46;20.80;;;17.50;;
37303;SDS011;23188;51.188;16.374;2022-08-18T05:51:48;21.45;;;17.12;;
37303;SDS011;23188;51.188;16.374;2022-08-18T05:56:00;22.98;;;15.85;;
37303;SDS011;23188;51.188;16.374;2022-08-18T06:00:23;17.80;;;15.80;;
37303;SDS011;23188;51.188;16.374;2022-08-18T06:04:28;20.55;;;16.57;;
37303;SDS011;23188;51.188;16.374;2022-08-18T06:08:45;23.87;;;17.05;;
37303;SDS011;23188;51.188;16.374;2022-08-18T06:13:07;21.85;;;16.40;;
37303;SDS011;23188;51.188;16.374;2022-08-18T06:21:47;20.08;;;17.15;;
37303;SDS011;23188;51.188;16.374;2022-08-18T06:43:25;21.62;;;15.00;;
37303;SDS011;23188;51.188;16.374;2022-08-18T06:47:41;23.92;;;15.48;;
37303;SDS011;23188;51.188;16.374;2022-08-18T06:51:44;43.08;;;19.65;;
37303;SDS011;23188;51.188;16.374;2022-08-18T06:55:47;14.98;;;13.48;;
37303;SDS011;23188;51.188;16.374;2022-08-18T06:59:54;17.73;;;14.93;;
37303;SDS011;23188;51.188;16.374;2022-08-18T07:04:04;23.25;;;15.28;;
37303;SDS011;23188;51.188;16.374;2022-08-18T07:08:13;20.17;;;15.68;;
37303;SDS011;23188;51.188;16.374;2022-08-18T07:12:36;15.23;;;12.68;;
37303;SDS011;23188;51.188;16.374;2022-08-18T07:16:37;16.30;;;13.48;;
37303;SDS011;23188;51.188;16.374;2022-08-18T07:24:55;15.45;;;12.93;;
37303;SDS011;23188;51.188;16.374;2022-08-18T07:29:11;16.00;;;14.33;;
37303;SDS011;23188;51.188;16.374;2022-08-18T07:33:17;16.10;;;10.55;;
37303;SDS011;23188;51.188;16.374;2022-08-18T07:41:41;21.73;;;19.40;;
37303;SDS011;23188;51.188;16.374;2022-08-18T07:45:44;16.77;;;15.18;;
37303;SDS011;23188;51.188;16.374;2022-08-18T07:49:47;16.65;;;12.63;;
37303;SDS011;23188;51.188;16.374;2022-08-18T08:06:48;32.20;;;13.25;;
37303;SDS011;23188;51.188;16.374;2022-08-18T08:11:20;13.43;;;10.15;;
37303;SDS011;23188;51.188;16.374;2022-08-18T08:15:55;15.50;;;11.22;;
37303;SDS011;23188;51.188;16.374;2022-08-18T08:20:19;14.45;;;11.38;;
37303;SDS011;23188;51.188;16.374;2022-08-18T08:33:32;14.03;;;9.63;;
37303;SDS011;23188;51.188;16.374;2022-08-18T08:38:05;13.80;;;10.40;;
37303;SDS011;23188;51.188;16.374;2022-08-18T08:42:13;16.15;;;10.45;;
37303;SDS011;23188;51.188;16.374;2022-08-18T08:46:31;17.85;;;10.13;;
37303;SDS011;23188;51.188;16.374;2022-08-18T08:50:39;14.00;;;8.95;;
37303;SDS011;23188;51.188;16.374;2022-08-18T08:54:55;16.73;;;10.50;;
37303;SDS011;23188;51.188;16.374;2022-08-18T08:59:04;11.30;;;10.20;;
37303;SDS011;23188;51.188;16.374;2022-08-18T09:21:03;13.10;;;10.28;;
37303;SDS011;23188;51.188;16.374;2022-08-18T09:25:33;23.60;;;12.33;;
37303;SDS011;23188;51.188;16.374;2022-08-18T09:34:16;10.63;;;9.47;;
37303;SDS011;23188;51.188;16.374;2022-08-18T09:38:23;10.43;;;9.03;;
37303;SDS011;23188;51.188;16.374;2022-08-18T09:42:54;14.57;;;10.37;;
37303;SDS011;23188;51.188;16.374;2022-08-18T09:51:32;12.45;;;11.08;;
37303;SDS011;23188;51.188;16.374;2022-08-18T09:55:38;14.18;;;12.25;;
37303;SDS011;23188;51.188;16.374;2022-08-18T10:22:10;13.72;;;10.38;;
37303;SDS011;23188;51.188;16.374;2022-08-18T10:30:45;12.40;;;9.80;;
37303;SDS011;23188;51.188;16.374;2022-08-18T10:34:50;12.80;;;10.68;;
37303;SDS011;23188;51.188;16.374;2022-08-18T10:38:54;11.00;;;8.75;;
37303;SDS011;23188;51.188;16.374;2022-08-18T10:43:07;10.48;;;9.00;;
37303;SDS011;23188;51.188;16.374;2022-08-18T10:47:20;10.88;;;7.83;;
37303;SDS011;23188;51.188;16.374;2022-08-18T11:00:09;13.65;;;9.25;;
37303;SDS011;23188;51.188;16.374;2022-08-18T11:04:24;8.55;;;7.70;;
37303;SDS011;23188;51.188;16.374;2022-08-18T11:08:33;9.55;;;8.53;;
37303;SDS011;23188;51.188;16.374;2022-08-18T11:25:44;7.47;;;6.72;;
37303;SDS011;23188;51.188;16.374;2022-08-18T11:29:45;14.00;;;9.15;;
37303;SDS011;23188;51.188;16.374;2022-08-18T11:33:47;8.65;;;7.75;;
37303;SDS011;23188;51.188;16.374;2022-08-18T11:37:56;8.78;;;7.90;;
37303;SDS011;23188;51.188;16.374;2022-08-18T11:42:00;8.60;;;7.75;;
37303;SDS011;23188;51.188;16.374;2022-08-18T11:46:13;10.45;;;8.20;;
37303;SDS011;23188;51.188;16.374;2022-08-18T11:50:26;11.53;;;8.18;;
37303;SDS011;23188;51.188;16.374;2022-08-18T11:54:35;8.98;;;8.18;;
37303;SDS011;23188;51.188;16.374;2022-08-18T11:58:48;9.75;;;8.85;;
37303;SDS011;23188;51.188;16.374;2022-08-18T12:03:01;13.03;;;8.73;;
37303;SDS011;23188;51.188;16.374;2022-08-18T12:07:14;9.77;;;8.77;;
37303;SDS011;23188;51.188;16.374;2022-08-18T12:11:19;10.63;;;8.90;;
37303;SDS011;23188;51.188;16.374;2022-08-18T12:15:25;10.40;;;9.05;;
37303;SDS011;23188;51.188;16.374;2022-08-18T12:19:30;8.73;;;7.92;;
37303;SDS011;23188;51.188;16.374;2022-08-18T12:23:32;8.88;;;7.55;;
37303;SDS011;23188;51.188;16.374;2022-08-18T12:27:36;9.93;;;8.05;;
37303;SDS011;23188;51.188;16.374;2022-08-18T12:31:37;14.05;;;9.58;;
37303;SDS011;23188;51.188;16.374;2022-08-18T12:35:39;9.18;;;7.33;;
37303;SDS011;23188;51.188;16.374;2022-08-18T12:39:41;8.85;;;7.95;;
37303;SDS011;23188;51.188;16.374;2022-08-18T12:43:43;9.10;;;7.60;;
37303;SDS011;23188;51.188;16.374;2022-08-18T12:47:45;23.73;;;11.33;;
37303;SDS011;23188;51.188;16.374;2022-08-18T12:51:47;10.30;;;7.78;;
37303;SDS011;23188;51.188;16.374;2022-08-18T12:55:49;9.50;;;8.55;;
37303;SDS011;23188;51.188;16.374;2022-08-18T12:59:51;13.05;;;10.18;;
37303;SDS011;23188;51.188;16.374;2022-08-18T13:03:54;10.00;;;8.48;;
37303;SDS011;23188;51.188;16.374;2022-08-18T13:07:57;26.60;;;12.47;;
37303;SDS011;23188;51.188;16.374;2022-08-18T13:12:02;10.78;;;8.55;;
37303;SDS011;23188;51.188;16.374;2022-08-18T13:16:06;45.58;;;15.05;;
37303;SDS011;23188;51.188;16.374;2022-08-18T13:20:12;9.78;;;8.78;;
37303;SDS011;23188;51.188;16.374;2022-08-18T13:24:16;14.85;;;9.93;;
37303;SDS011;23188;51.188;16.374;2022-08-18T13:28:18;12.50;;;8.78;;
37303;SDS011;23188;51.188;16.374;2022-08-18T13:32:19;9.90;;;8.90;;
37303;SDS011;23188;51.188;16.374;2022-08-18T13:36:21;12.53;;;8.83;;
37303;SDS011;23188;51.188;16.374;2022-08-18T13:40:25;9.55;;;7.92;;
37303;SDS011;23188;51.188;16.374;2022-08-18T13:44:26;11.80;;;8.95;;
37303;SDS011;23188;51.188;16.374;2022-08-18T13:48:28;11.08;;;9.98;;
37303;SDS011;23188;51.188;16.374;2022-08-18T13:52:31;19.12;;;10.10;;
37303;SDS011;23188;51.188;16.374;2022-08-18T13:56:32;14.55;;;8.68;;
37303;SDS011;23188;51.188;16.374;2022-08-18T14:00:34;9.35;;;8.43;;
37303;SDS011;23188;51.188;16.374;2022-08-18T14:04:36;12.25;;;8.78;;
37303;SDS011;23188;51.188;16.374;2022-08-18T14:08:38;10.85;;;7.65;;
37303;SDS011;23188;51.188;16.374;2022-08-18T14:12:40;9.08;;;8.20;;
37303;SDS011;23188;51.188;16.374;2022-08-18T14:16:42;11.95;;;9.10;;
37303;SDS011;23188;51.188;16.374;2022-08-18T14:20:43;11.85;;;9.10;;
37303;SDS011;23188;51.188;16.374;2022-08-18T14:25:03;12.58;;;9.20;;
37303;SDS011;23188;51.188;16.374;2022-08-18T14:29:23;10.35;;;7.50;;
37303;SDS011;23188;51.188;16.374;2022-08-18T14:33:26;9.55;;;8.00;;
37303;SDS011;23188;51.188;16.374;2022-08-18T14:37:30;15.75;;;8.15;;
37303;SDS011;23188;51.188;16.374;2022-08-18T14:41:31;10.93;;;8.08;;
37303;SDS011;23188;51.188;16.374;2022-08-18T14:45:35;16.07;;;9.60;;
37303;SDS011;23188;51.188;16.374;2022-08-18T14:49:36;11.97;;;9.80;;
37303;SDS011;23188;51.188;16.374;2022-08-18T14:53:39;9.18;;;7.55;;
37303;SDS011;23188;51.188;16.374;2022-08-18T14:57:40;10.58;;;8.38;;
37303;SDS011;23188;51.188;16.374;2022-08-18T15:01:42;10.80;;;9.80;;
37303;SDS011;23188;51.188;16.374;2022-08-18T15:05:43;12.68;;;10.00;;
37303;SDS011;23188;51.188;16.374;2022-08-18T15:09:45;10.10;;;9.20;;
37303;SDS011;23188;51.188;16.374;2022-08-18T15:13:46;12.13;;;10.58;;
37303;SDS011;23188;51.188;16.374;2022-08-18T15:17:48;11.43;;;10.32;;
37303;SDS011;23188;51.188;16.374;2022-08-18T15:21:50;11.38;;;10.23;;
37303;SDS011;23188;51.188;16.374;2022-08-18T15:26:10;11.25;;;10.15;;
37303;SDS011;23188;51.188;16.374;2022-08-18T15:30:12;11.20;;;9.73;;
37303;SDS011;23188;51.188;16.374;2022-08-18T15:34:16;12.58;;;10.20;;
37303;SDS011;23188;51.188;16.374;2022-08-18T15:42:32;10.78;;;9.78;;
37303;SDS011;23188;51.188;16.374;2022-08-18T15:46:34;13.10;;;10.30;;
37303;SDS011;23188;51.188;16.374;2022-08-18T15:50:38;12.05;;;10.78;;
37303;SDS011;23188;51.188;16.374;2022-08-18T15:54:40;14.50;;;11.25;;
37303;SDS011;23188;51.188;16.374;2022-08-18T15:58:41;12.33;;;11.12;;
37303;SDS011;23188;51.188;16.374;2022-08-18T16:02:49;12.13;;;10.87;;
37303;SDS011;23188;51.188;16.374;2022-08-18T16:06:55;10.05;;;9.03;;
37303;SDS011;23188;51.188;16.374;2022-08-18T16:10:57;11.48;;;9.38;;
37303;SDS011;23188;51.188;16.374;2022-08-18T16:14:58;10.18;;;9.18;;
37303;SDS011;23188;51.188;16.374;2022-08-18T16:18:59;12.35;;;10.60;;
37303;SDS011;23188;51.188;16.374;2022-08-18T16:23:01;11.45;;;10.25;;
37303;SDS011;23188;51.188;16.374;2022-08-18T16:27:05;16.67;;;10.03;;
37303;SDS011;23188;51.188;16.374;2022-08-18T16:31:08;12.93;;;9.97;;
37303;SDS011;23188;51.188;16.374;2022-08-18T16:35:10;11.60;;;9.80;;
37303;SDS011;23188;51.188;16.374;2022-08-18T16:39:11;9.90;;;8.35;;
37303;SDS011;23188;51.188;16.374;2022-08-18T16:43:13;13.50;;;10.70;;
37303;SDS011;23188;51.188;16.374;2022-08-18T16:47:15;17.12;;;9.83;;
37303;SDS011;23188;51.188;16.374;2022-08-18T16:51:20;9.25;;;8.45;;
37303;SDS011;23188;51.188;16.374;2022-08-18T16:55:24;12.35;;;8.83;;
37303;SDS011;23188;51.188;16.374;2022-08-18T16:59:27;10.00;;;9.00;;
37303;SDS011;23188;51.188;16.374;2022-08-18T17:03:46;12.53;;;9.35;;
37303;SDS011;23188;51.188;16.374;2022-08-18T17:08:06;9.85;;;8.33;;
37303;SDS011;23188;51.188;16.374;2022-08-18T17:12:07;10.65;;;8.60;;
37303;SDS011;23188;51.188;16.374;2022-08-18T17:16:09;12.18;;;10.60;;
37303;SDS011;23188;51.188;16.374;2022-08-18T17:20:11;8.73;;;7.92;;
37303;SDS011;23188;51.188;16.374;2022-08-18T17:24:13;10.08;;;9.08;;
37303;SDS011;23188;51.188;16.374;2022-08-18T17:28:15;11.18;;;9.83;;
37303;SDS011;23188;51.188;16.374;2022-08-18T17:32:24;11.00;;;7.47;;
37303;SDS011;23188;51.188;16.374;2022-08-18T17:36:42;14.78;;;8.55;;
37303;SDS011;23188;51.188;16.374;2022-08-18T17:40:55;8.43;;;7.73;;
37303;SDS011;23188;51.188;16.374;2022-08-18T17:45:00;11.87;;;9.27;;
37303;SDS011;23188;51.188;16.374;2022-08-18T17:49:15;10.43;;;8.65;;
37303;SDS011;23188;51.188;16.374;2022-08-18T17:53:24;14.10;;;9.73;;
37303;SDS011;23188;51.188;16.374;2022-08-18T17:57:30;11.75;;;8.65;;
37303;SDS011;23188;51.188;16.374;2022-08-18T18:01:31;8.83;;;7.92;;
37303;SDS011;23188;51.188;16.374;2022-08-18T18:05:36;14.63;;;9.68;;
37303;SDS011;23188;51.188;16.374;2022-08-18T18:09:42;9.93;;;8.83;;
37303;SDS011;23188;51.188;16.374;2022-08-18T18:13:48;10.23;;;8.73;;
37303;SDS011;23188;51.188;16.374;2022-08-18T18:17:50;8.78;;;7.70;;
37303;SDS011;23188;51.188;16.374;2022-08-18T18:21:59;9.83;;;8.83;;
37303;SDS011;23188;51.188;16.374;2022-08-18T18:25:59;12.23;;;8.98;;
37303;SDS011;23188;51.188;16.374;2022-08-18T18:30:26;10.72;;;9.63;;
37303;SDS011;23188;51.188;16.374;2022-08-18T18:34:45;15.63;;;8.75;;
37303;SDS011;23188;51.188;16.374;2022-08-18T18:39:08;13.08;;;10.25;;
37303;SDS011;23188;51.188;16.374;2022-08-18T18:43:27;13.98;;;8.78;;
37303;SDS011;23188;51.188;16.374;2022-08-18T18:52:06;11.10;;;9.33;;
37303;SDS011;23188;51.188;16.374;2022-08-18T18:56:29;13.78;;;10.30;;
37303;SDS011;23188;51.188;16.374;2022-08-18T19:00:47;14.00;;;9.70;;
37303;SDS011;23188;51.188;16.374;2022-08-18T19:09:32;12.18;;;9.68;;
37303;SDS011;23188;51.188;16.374;2022-08-18T19:13:49;16.17;;;10.48;;
37303;SDS011;23188;51.188;16.374;2022-08-18T19:17:55;12.03;;;10.72;;
37303;SDS011;23188;51.188;16.374;2022-08-18T19:22:06;14.70;;;10.03;;
37303;SDS011;23188;51.188;16.374;2022-08-18T19:26:36;15.25;;;10.95;;
37303;SDS011;23188;51.188;16.374;2022-08-18T19:30:41;13.10;;;11.28;;
37303;SDS011;23188;51.188;16.374;2022-08-18T19:34:46;12.00;;;10.18;;
37303;SDS011;23188;51.188;16.374;2022-08-18T19:39:02;12.78;;;10.08;;
37303;SDS011;23188;51.188;16.374;2022-08-18T19:43:20;16.82;;;11.15;;
37303;SDS011;23188;51.188;16.374;2022-08-18T19:47:47;15.93;;;11.08;;
37303;SDS011;23188;51.188;16.374;2022-08-18T19:51:59;13.98;;;11.80;;
37303;SDS011;23188;51.188;16.374;2022-08-18T19:56:25;13.83;;;11.85;;
37303;SDS011;23188;51.188;16.374;2022-08-18T20:05:16;23.57;;;12.95;;
37303;SDS011;23188;51.188;16.374;2022-08-18T20:13:50;14.15;;;11.50;;
37303;SDS011;23188;51.188;16.374;2022-08-18T20:22:07;18.45;;;11.63;;
37303;SDS011;23188;51.188;16.374;2022-08-18T20:26:48;13.05;;;10.98;;
37303;SDS011;23188;51.188;16.374;2022-08-18T20:35:17;12.37;;;10.85;;
37303;SDS011;23188;51.188;16.374;2022-08-18T20:43:52;11.20;;;10.00;;
37303;SDS011;23188;51.188;16.374;2022-08-18T20:48:10;21.10;;;12.60;;
37303;SDS011;23188;51.188;16.374;2022-08-18T20:53:08;14.20;;;11.45;;
37303;SDS011;23188;51.188;16.374;2022-08-18T20:56:51;16.62;;;11.53;;
37303;SDS011;23188;51.188;16.374;2022-08-18T21:00:59;17.12;;;11.73;;
37303;SDS011;23188;51.188;16.374;2022-08-18T21:05:01;19.30;;;11.63;;
37303;SDS011;23188;51.188;16.374;2022-08-18T21:09:03;12.58;;;11.25;;
37303;SDS011;23188;51.188;16.374;2022-08-18T21:13:05;13.43;;;12.07;;
37303;SDS011;23188;51.188;16.374;2022-08-18T21:17:11;17.17;;;13.83;;
37303;SDS011;23188;51.188;16.374;2022-08-18T21:21:16;16.15;;;10.60;;
37303;SDS011;23188;51.188;16.374;2022-08-18T21:25:27;13.90;;;12.60;;
37303;SDS011;23188;51.188;16.374;2022-08-18T21:29:29;14.58;;;11.55;;
37303;SDS011;23188;51.188;16.374;2022-08-18T21:33:31;17.87;;;12.47;;
37303;SDS011;23188;51.188;16.374;2022-08-18T21:37:38;17.90;;;13.03;;
37303;SDS011;23188;51.188;16.374;2022-08-18T21:45:47;12.98;;;10.43;;
37303;SDS011;23188;51.188;16.374;2022-08-18T21:49:56;12.58;;;10.80;;
37303;SDS011;23188;51.188;16.374;2022-08-18T21:54:23;14.00;;;12.60;;
37303;SDS011;23188;51.188;16.374;2022-08-18T21:58:29;12.63;;;11.25;;
37303;SDS011;23188;51.188;16.374;2022-08-18T22:02:38;16.15;;;11.35;;
37303;SDS011;23188;51.188;16.374;2022-08-18T22:06:42;17.00;;;14.25;;
37303;SDS011;23188;51.188;16.374;2022-08-18T22:11:03;17.02;;;12.37;;
37303;SDS011;23188;51.188;16.374;2022-08-18T22:15:39;15.60;;;11.73;;
37303;SDS011;23188;51.188;16.374;2022-08-18T22:19:49;13.83;;;11.45;;
37303;SDS011;23188;51.188;16.374;2022-08-18T22:23:51;14.05;;;10.93;;
37303;SDS011;23188;51.188;16.374;2022-08-18T22:28:11;16.07;;;12.15;;
37303;SDS011;23188;51.188;16.374;2022-08-18T22:32:13;17.67;;;12.80;;
37303;SDS011;23188;51.188;16.374;2022-08-18T22:36:17;14.33;;;11.43;;
37303;SDS011;23188;51.188;16.374;2022-08-18T22:40:22;16.27;;;11.30;;
37303;SDS011;23188;51.188;16.374;2022-08-18T22:44:24;16.45;;;12.28;;
37303;SDS011;23188;51.188;16.374;2022-08-18T22:48:26;12.10;;;10.80;;
37303;SDS011;23188;51.188;16.374;2022-08-18T22:52:33;14.33;;;12.18;;
37303;SDS011;23188;51.188;16.374;2022-08-18T22:56:35;14.58;;;12.88;;
37303;SDS011;23188;51.188;16.374;2022-08-18T23:00:38;19.70;;;12.25;;
37303;SDS011;23188;51.188;16.374;2022-08-18T23:04:40;17.05;;;12.82;;
37303;SDS011;23188;51.188;16.374;2022-08-18T23:08:43;13.83;;;10.95;;
37303;SDS011;23188;51.188;16.374;2022-08-18T23:12:46;15.72;;;13.00;;
37303;SDS011;23188;51.188;16.374;2022-08-18T23:16:49;13.88;;;11.03;;
37303;SDS011;23188;51.188;16.374;2022-08-18T23:20:52;12.85;;;11.55;;
37303;SDS011;23188;51.188;16.374;2022-08-18T23:24:58;26.97;;;12.15;;
37303;SDS011;23188;51.188;16.374;2022-08-18T23:29:01;16.40;;;12.47;;
37303;SDS011;23188;51.188;16.374;2022-08-18T23:33:05;14.23;;;12.60;;
37303;SDS011;23188;51.188;16.374;2022-08-18T23:37:09;15.37;;;11.17;;
37303;SDS011;23188;51.188;16.374;2022-08-18T23:41:11;15.05;;;11.12;;
37303;SDS011;23188;51.188;16.374;2022-08-18T23:45:18;14.00;;;11.43;;
37303;SDS011;23188;51.188;16.374;2022-08-18T23:49:20;15.28;;;11.45;;
37303;SDS011;23188;51.188;16.374;2022-08-18T23:53:22;12.05;;;10.80;;
37303;SDS011;23188;51.188;16.374;2022-08-18T23:57:23;13.45;;;11.53;;
